sensor_id;sensor_type;location;lat;lon;timestamp;P1;durP1;ratioP1;P2;durP2;ratioP2
24030;SDS011;12240;51.142;22.486;2022-09-09T00:07:58;14.98;;;5.35;;
24030;SDS011;12240;51.142;22.486;2022-09-09T00:10:36;14.25;;;4.90;;
24030;SDS011;12240;51.142;22.486;2022-09-09T00:13:18;11.68;;;5.47;;
24030;SDS011;12240;51.142;22.486;2022-09-09T00:16:04;16.10;;;5.13;;
24030;SDS011;12240;51.142;22.486;2022-09-09T00:18:54;12.77;;;5.25;;
24030;SDS011;12240;51.142;22.486;2022-09-09T00:24:54;12.18;;;4.88;;
24030;SDS011;12240;51.142;22.486;2022-09-09T00:27:31;8.43;;;3.97;;
24030;SDS011;12240;51.142;22.486;2022-09-09T00:30:17;9.43;;;4.70;;
24030;SDS011;12240;51.142;22.486;2022-09-09T00:32:58;13.40;;;5.00;;
24030;SDS011;12240;51.142;22.486;2022-09-09T00:35:31;13.10;;;6.15;;
24030;SDS011;12240;51.142;22.486;2022-09-09T00:38:14;15.00;;;6.00;;
24030;SDS011;12240;51.142;22.486;2022-09-09T00:41:30;12.75;;;5.53;;
24030;SDS011;12240;51.142;22.486;2022-09-09T00:43:55;11.20;;;5.00;;
24030;SDS011;12240;51.142;22.486;2022-09-09T00:58:06;12.70;;;5.22;;
24030;SDS011;12240;51.142;22.486;2022-09-09T01:00:39;12.85;;;5.20;;
24030;SDS011;12240;51.142;22.486;2022-09-09T01:06:20;12.95;;;5.63;;
24030;SDS011;12240;51.142;22.486;2022-09-09T01:17:19;9.98;;;4.80;;
24030;SDS011;12240;51.142;22.486;2022-09-09T01:23:03;11.65;;;4.80;;
24030;SDS011;12240;51.142;22.486;2022-09-09T01:26:35;15.13;;;5.68;;
24030;SDS011;12240;51.142;22.486;2022-09-09T01:29:15;12.52;;;5.10;;
24030;SDS011;12240;51.142;22.486;2022-09-09T01:31:55;11.05;;;4.55;;
24030;SDS011;12240;51.142;22.486;2022-09-09T01:34:50;11.93;;;6.00;;
24030;SDS011;12240;51.142;22.486;2022-09-09T01:37:20;11.93;;;5.45;;
24030;SDS011;12240;51.142;22.486;2022-09-09T01:39:48;15.35;;;5.13;;
24030;SDS011;12240;51.142;22.486;2022-09-09T01:42:17;12.70;;;5.22;;
24030;SDS011;12240;51.142;22.486;2022-09-09T01:44:46;9.90;;;4.97;;
24030;SDS011;12240;51.142;22.486;2022-09-09T01:47:14;10.18;;;5.70;;
24030;SDS011;12240;51.142;22.486;2022-09-09T01:50:09;13.70;;;5.10;;
24030;SDS011;12240;51.142;22.486;2022-09-09T01:52:41;9.98;;;4.60;;
24030;SDS011;12240;51.142;22.486;2022-09-09T01:55:15;10.57;;;5.15;;
24030;SDS011;12240;51.142;22.486;2022-09-09T01:57:53;13.98;;;4.47;;
24030;SDS011;12240;51.142;22.486;2022-09-09T02:03:49;14.63;;;6.30;;
24030;SDS011;12240;51.142;22.486;2022-09-09T02:06:35;13.68;;;5.75;;
24030;SDS011;12240;51.142;22.486;2022-09-09T02:09:23;14.68;;;5.80;;
24030;SDS011;12240;51.142;22.486;2022-09-09T02:12:00;11.70;;;5.75;;
24030;SDS011;12240;51.142;22.486;2022-09-09T02:14:49;13.68;;;5.85;;
24030;SDS011;12240;51.142;22.486;2022-09-09T02:17:26;15.45;;;6.53;;
24030;SDS011;12240;51.142;22.486;2022-09-09T02:20:14;13.88;;;5.68;;
24030;SDS011;12240;51.142;22.486;2022-09-09T02:22:47;10.07;;;4.85;;
24030;SDS011;12240;51.142;22.486;2022-09-09T02:25:20;15.35;;;6.40;;
24030;SDS011;12240;51.142;22.486;2022-09-09T02:27:55;17.15;;;6.32;;
24030;SDS011;12240;51.142;22.486;2022-09-09T02:30:28;10.50;;;4.93;;
24030;SDS011;12240;51.142;22.486;2022-09-09T02:35:42;16.98;;;6.82;;
24030;SDS011;12240;51.142;22.486;2022-09-09T02:38:17;16.48;;;5.97;;
24030;SDS011;12240;51.142;22.486;2022-09-09T02:40:56;17.08;;;5.80;;
24030;SDS011;12240;51.142;22.486;2022-09-09T02:43:25;14.77;;;5.95;;
24030;SDS011;12240;51.142;22.486;2022-09-09T02:54:39;11.20;;;5.70;;
24030;SDS011;12240;51.142;22.486;2022-09-09T02:57:12;12.40;;;5.40;;
24030;SDS011;12240;51.142;22.486;2022-09-09T02:59:46;9.93;;;5.15;;
24030;SDS011;12240;51.142;22.486;2022-09-09T03:02:17;19.27;;;5.15;;
24030;SDS011;12240;51.142;22.486;2022-09-09T03:04:50;19.05;;;6.50;;
24030;SDS011;12240;51.142;22.486;2022-09-09T03:07:20;11.27;;;5.88;;
24030;SDS011;12240;51.142;22.486;2022-09-09T03:09:50;13.63;;;6.25;;
24030;SDS011;12240;51.142;22.486;2022-09-09T03:12:19;14.35;;;5.75;;
24030;SDS011;12240;51.142;22.486;2022-09-09T03:14:48;10.55;;;5.35;;
24030;SDS011;12240;51.142;22.486;2022-09-09T03:17:17;12.57;;;5.63;;
24030;SDS011;12240;51.142;22.486;2022-09-09T03:19:50;12.35;;;5.57;;
24030;SDS011;12240;51.142;22.486;2022-09-09T03:22:21;10.50;;;5.45;;
24030;SDS011;12240;51.142;22.486;2022-09-09T03:24:49;12.32;;;5.15;;
24030;SDS011;12240;51.142;22.486;2022-09-09T03:27:19;15.07;;;5.82;;
24030;SDS011;12240;51.142;22.486;2022-09-09T03:29:47;14.32;;;5.47;;
24030;SDS011;12240;51.142;22.486;2022-09-09T03:32:22;10.32;;;5.43;;
24030;SDS011;12240;51.142;22.486;2022-09-09T03:34:52;12.80;;;5.95;;
24030;SDS011;12240;51.142;22.486;2022-09-09T03:37:21;13.93;;;5.50;;
24030;SDS011;12240;51.142;22.486;2022-09-09T03:39:50;12.10;;;5.15;;
24030;SDS011;12240;51.142;22.486;2022-09-09T03:42:22;8.98;;;4.85;;
24030;SDS011;12240;51.142;22.486;2022-09-09T03:44:54;10.65;;;4.97;;
24030;SDS011;12240;51.142;22.486;2022-09-09T03:47:24;13.05;;;5.30;;
24030;SDS011;12240;51.142;22.486;2022-09-09T03:49:58;12.63;;;6.07;;
24030;SDS011;12240;51.142;22.486;2022-09-09T03:52:28;16.73;;;6.00;;
24030;SDS011;12240;51.142;22.486;2022-09-09T03:54:57;11.50;;;5.68;;
24030;SDS011;12240;51.142;22.486;2022-09-09T03:57:25;13.50;;;6.22;;
24030;SDS011;12240;51.142;22.486;2022-09-09T03:59:53;14.48;;;6.43;;
24030;SDS011;12240;51.142;22.486;2022-09-09T04:02:22;11.93;;;6.22;;
24030;SDS011;12240;51.142;22.486;2022-09-09T04:04:50;14.30;;;6.22;;
24030;SDS011;12240;51.142;22.486;2022-09-09T04:07:20;12.20;;;6.15;;
24030;SDS011;12240;51.142;22.486;2022-09-09T04:09:49;12.18;;;5.72;;
24030;SDS011;12240;51.142;22.486;2022-09-09T04:12:18;13.10;;;6.15;;
24030;SDS011;12240;51.142;22.486;2022-09-09T04:14:46;16.40;;;6.05;;
24030;SDS011;12240;51.142;22.486;2022-09-09T04:17:15;12.65;;;6.55;;
24030;SDS011;12240;51.142;22.486;2022-09-09T04:19:44;12.50;;;5.97;;
24030;SDS011;12240;51.142;22.486;2022-09-09T04:22:13;12.35;;;5.70;;
24030;SDS011;12240;51.142;22.486;2022-09-09T04:24:41;14.07;;;6.35;;
24030;SDS011;12240;51.142;22.486;2022-09-09T04:27:15;12.35;;;5.78;;
24030;SDS011;12240;51.142;22.486;2022-09-09T04:29:43;13.77;;;5.43;;
24030;SDS011;12240;51.142;22.486;2022-09-09T04:32:12;12.82;;;6.18;;
24030;SDS011;12240;51.142;22.486;2022-09-09T04:34:40;10.73;;;5.47;;
24030;SDS011;12240;51.142;22.486;2022-09-09T04:37:09;13.18;;;6.47;;
24030;SDS011;12240;51.142;22.486;2022-09-09T04:39:38;16.75;;;6.43;;
24030;SDS011;12240;51.142;22.486;2022-09-09T04:42:06;12.90;;;6.13;;
24030;SDS011;12240;51.142;22.486;2022-09-09T04:44:35;13.02;;;6.70;;
24030;SDS011;12240;51.142;22.486;2022-09-09T04:47:04;12.45;;;5.82;;
24030;SDS011;12240;51.142;22.486;2022-09-09T04:49:32;14.05;;;6.03;;
24030;SDS011;12240;51.142;22.486;2022-09-09T04:52:01;14.10;;;6.35;;
24030;SDS011;12240;51.142;22.486;2022-09-09T04:54:34;13.38;;;6.10;;
24030;SDS011;12240;51.142;22.486;2022-09-09T04:57:02;14.38;;;6.28;;
24030;SDS011;12240;51.142;22.486;2022-09-09T04:59:31;14.98;;;6.50;;
24030;SDS011;12240;51.142;22.486;2022-09-09T05:02:01;13.52;;;6.22;;
24030;SDS011;12240;51.142;22.486;2022-09-09T05:04:29;14.98;;;5.88;;
24030;SDS011;12240;51.142;22.486;2022-09-09T05:06:58;12.00;;;5.03;;
24030;SDS011;12240;51.142;22.486;2022-09-09T05:09:26;8.60;;;4.78;;
24030;SDS011;12240;51.142;22.486;2022-09-09T05:11:55;13.23;;;6.22;;
24030;SDS011;12240;51.142;22.486;2022-09-09T05:14:28;11.77;;;6.45;;
24030;SDS011;12240;51.142;22.486;2022-09-09T05:16:59;10.38;;;4.85;;
24030;SDS011;12240;51.142;22.486;2022-09-09T05:19:27;13.40;;;6.35;;
24030;SDS011;12240;51.142;22.486;2022-09-09T05:21:55;16.02;;;6.60;;
24030;SDS011;12240;51.142;22.486;2022-09-09T05:24:31;12.70;;;5.80;;
24030;SDS011;12240;51.142;22.486;2022-09-09T05:27:02;11.77;;;6.57;;
24030;SDS011;12240;51.142;22.486;2022-09-09T05:29:30;13.65;;;6.07;;
24030;SDS011;12240;51.142;22.486;2022-09-09T05:32:02;10.95;;;5.60;;
24030;SDS011;12240;51.142;22.486;2022-09-09T05:37:02;14.43;;;5.97;;
24030;SDS011;12240;51.142;22.486;2022-09-09T05:39:32;12.50;;;5.93;;
24030;SDS011;12240;51.142;22.486;2022-09-09T05:42:01;9.75;;;5.13;;
24030;SDS011;12240;51.142;22.486;2022-09-09T05:44:32;12.90;;;5.97;;
24030;SDS011;12240;51.142;22.486;2022-09-09T05:47:01;8.60;;;4.97;;
24030;SDS011;12240;51.142;22.486;2022-09-09T05:49:30;11.43;;;5.57;;
24030;SDS011;12240;51.142;22.486;2022-09-09T05:51:59;13.93;;;5.32;;
24030;SDS011;12240;51.142;22.486;2022-09-09T05:54:27;13.65;;;5.53;;
24030;SDS011;12240;51.142;22.486;2022-09-09T05:56:55;10.40;;;4.47;;
24030;SDS011;12240;51.142;22.486;2022-09-09T05:59:23;10.20;;;5.53;;
24030;SDS011;12240;51.142;22.486;2022-09-09T06:01:54;11.60;;;6.00;;
24030;SDS011;12240;51.142;22.486;2022-09-09T06:04:29;10.63;;;5.30;;
24030;SDS011;12240;51.142;22.486;2022-09-09T06:07:00;11.50;;;6.15;;
24030;SDS011;12240;51.142;22.486;2022-09-09T06:09:29;13.18;;;5.93;;
24030;SDS011;12240;51.142;22.486;2022-09-09T06:11:57;12.80;;;5.63;;
24030;SDS011;12240;51.142;22.486;2022-09-09T06:14:26;10.88;;;5.10;;
24030;SDS011;12240;51.142;22.486;2022-09-09T06:16:57;10.10;;;5.32;;
24030;SDS011;12240;51.142;22.486;2022-09-09T06:19:28;11.38;;;5.93;;
24030;SDS011;12240;51.142;22.486;2022-09-09T06:21:59;9.80;;;5.53;;
24030;SDS011;12240;51.142;22.486;2022-09-09T06:24:29;13.77;;;4.05;;
24030;SDS011;12240;51.142;22.486;2022-09-09T06:27:00;12.55;;;5.38;;
24030;SDS011;12240;51.142;22.486;2022-09-09T06:29:32;13.52;;;5.03;;
24030;SDS011;12240;51.142;22.486;2022-09-09T06:32:02;11.65;;;5.97;;
24030;SDS011;12240;51.142;22.486;2022-09-09T06:34:31;11.88;;;6.13;;
24030;SDS011;12240;51.142;22.486;2022-09-09T06:37:00;16.67;;;5.78;;
24030;SDS011;12240;51.142;22.486;2022-09-09T06:39:36;11.88;;;5.43;;
24030;SDS011;12240;51.142;22.486;2022-09-09T06:42:05;13.05;;;5.22;;
24030;SDS011;12240;51.142;22.486;2022-09-09T06:44:56;11.57;;;5.18;;
24030;SDS011;12240;51.142;22.486;2022-09-09T06:47:34;13.88;;;5.68;;
24030;SDS011;12240;51.142;22.486;2022-09-09T06:50:03;20.75;;;7.00;;
24030;SDS011;12240;51.142;22.486;2022-09-09T06:52:34;14.75;;;6.75;;
24030;SDS011;12240;51.142;22.486;2022-09-09T06:55:03;15.18;;;6.10;;
24030;SDS011;12240;51.142;22.486;2022-09-09T06:57:33;15.52;;;7.15;;
24030;SDS011;12240;51.142;22.486;2022-09-09T07:00:12;15.68;;;6.82;;
24030;SDS011;12240;51.142;22.486;2022-09-09T07:02:41;12.07;;;5.00;;
24030;SDS011;12240;51.142;22.486;2022-09-09T07:05:11;14.50;;;5.72;;
24030;SDS011;12240;51.142;22.486;2022-09-09T07:07:41;13.38;;;6.25;;
24030;SDS011;12240;51.142;22.486;2022-09-09T07:10:11;11.23;;;5.32;;
24030;SDS011;12240;51.142;22.486;2022-09-09T07:12:39;13.27;;;5.95;;
24030;SDS011;12240;51.142;22.486;2022-09-09T07:15:10;10.95;;;5.03;;
24030;SDS011;12240;51.142;22.486;2022-09-09T07:17:42;12.00;;;5.78;;
24030;SDS011;12240;51.142;22.486;2022-09-09T07:20:10;12.38;;;5.53;;
24030;SDS011;12240;51.142;22.486;2022-09-09T07:22:40;16.50;;;6.90;;
24030;SDS011;12240;51.142;22.486;2022-09-09T07:25:09;12.60;;;6.43;;
24030;SDS011;12240;51.142;22.486;2022-09-09T07:27:38;10.05;;;5.93;;
24030;SDS011;12240;51.142;22.486;2022-09-09T07:30:09;11.18;;;6.30;;
24030;SDS011;12240;51.142;22.486;2022-09-09T07:32:44;13.07;;;6.70;;
24030;SDS011;12240;51.142;22.486;2022-09-09T07:35:12;12.55;;;6.65;;
24030;SDS011;12240;51.142;22.486;2022-09-09T07:37:41;14.77;;;6.45;;
24030;SDS011;12240;51.142;22.486;2022-09-09T07:40:12;13.90;;;6.55;;
24030;SDS011;12240;51.142;22.486;2022-09-09T07:42:42;13.13;;;6.32;;
24030;SDS011;12240;51.142;22.486;2022-09-09T07:45:10;16.88;;;6.28;;
24030;SDS011;12240;51.142;22.486;2022-09-09T07:47:39;18.67;;;7.45;;
24030;SDS011;12240;51.142;22.486;2022-09-09T07:50:09;14.70;;;6.35;;
24030;SDS011;12240;51.142;22.486;2022-09-09T07:52:38;17.40;;;7.03;;
24030;SDS011;12240;51.142;22.486;2022-09-09T07:55:07;17.38;;;6.93;;
24030;SDS011;12240;51.142;22.486;2022-09-09T07:57:37;13.88;;;6.45;;
24030;SDS011;12240;51.142;22.486;2022-09-09T08:00:05;14.43;;;6.90;;
24030;SDS011;12240;51.142;22.486;2022-09-09T08:02:41;12.98;;;6.97;;
24030;SDS011;12240;51.142;22.486;2022-09-09T08:05:10;17.08;;;7.22;;
24030;SDS011;12240;51.142;22.486;2022-09-09T08:07:40;19.08;;;7.03;;
24030;SDS011;12240;51.142;22.486;2022-09-09T08:10:08;15.48;;;7.35;;
24030;SDS011;12240;51.142;22.486;2022-09-09T08:12:39;17.25;;;7.38;;
24030;SDS011;12240;51.142;22.486;2022-09-09T08:15:22;18.50;;;7.72;;
24030;SDS011;12240;51.142;22.486;2022-09-09T08:17:51;21.92;;;8.50;;
24030;SDS011;12240;51.142;22.486;2022-09-09T08:20:19;18.40;;;7.85;;
24030;SDS011;12240;51.142;22.486;2022-09-09T08:22:47;23.90;;;8.48;;
24030;SDS011;12240;51.142;22.486;2022-09-09T08:25:18;17.83;;;8.23;;
24030;SDS011;12240;51.142;22.486;2022-09-09T08:27:46;17.90;;;7.32;;
24030;SDS011;12240;51.142;22.486;2022-09-09T08:30:14;19.55;;;8.25;;
24030;SDS011;12240;51.142;22.486;2022-09-09T08:32:43;20.83;;;8.88;;
24030;SDS011;12240;51.142;22.486;2022-09-09T08:35:13;23.27;;;8.52;;
24030;SDS011;12240;51.142;22.486;2022-09-09T08:37:41;19.52;;;7.75;;
24030;SDS011;12240;51.142;22.486;2022-09-09T08:40:11;22.00;;;9.15;;
24030;SDS011;12240;51.142;22.486;2022-09-09T08:42:54;20.63;;;9.05;;
24030;SDS011;12240;51.142;22.486;2022-09-09T08:45:31;20.05;;;7.65;;
24030;SDS011;12240;51.142;22.486;2022-09-09T08:48:23;19.77;;;8.55;;
24030;SDS011;12240;51.142;22.486;2022-09-09T08:51:34;21.75;;;9.45;;
24030;SDS011;12240;51.142;22.486;2022-09-09T08:54:02;24.50;;;9.43;;
24030;SDS011;12240;51.142;22.486;2022-09-09T08:56:32;22.67;;;8.98;;
24030;SDS011;12240;51.142;22.486;2022-09-09T08:59:02;21.13;;;9.23;;
24030;SDS011;12240;51.142;22.486;2022-09-09T09:01:41;24.00;;;8.48;;
24030;SDS011;12240;51.142;22.486;2022-09-09T09:16:48;21.90;;;9.07;;
24030;SDS011;12240;51.142;22.486;2022-09-09T09:19:32;21.15;;;10.05;;
24030;SDS011;12240;51.142;22.486;2022-09-09T09:22:16;23.20;;;9.30;;
24030;SDS011;12240;51.142;22.486;2022-09-09T09:30:49;22.13;;;10.85;;
24030;SDS011;12240;51.142;22.486;2022-09-09T09:33:46;30.70;;;11.15;;
24030;SDS011;12240;51.142;22.486;2022-09-09T09:36:25;24.90;;;10.10;;
24030;SDS011;12240;51.142;22.486;2022-09-09T09:39:06;25.38;;;10.20;;
24030;SDS011;12240;51.142;22.486;2022-09-09T09:44:35;22.80;;;10.25;;
24030;SDS011;12240;51.142;22.486;2022-09-09T09:47:13;27.92;;;10.40;;
24030;SDS011;12240;51.142;22.486;2022-09-09T09:49:58;24.08;;;9.35;;
24030;SDS011;12240;51.142;22.486;2022-09-09T09:52:34;22.23;;;10.13;;
24030;SDS011;12240;51.142;22.486;2022-09-09T09:55:11;27.48;;;10.82;;
24030;SDS011;12240;51.142;22.486;2022-09-09T09:57:43;21.35;;;9.05;;
24030;SDS011;12240;51.142;22.486;2022-09-09T10:00:13;21.33;;;10.20;;
24030;SDS011;12240;51.142;22.486;2022-09-09T10:02:53;19.30;;;8.88;;
24030;SDS011;12240;51.142;22.486;2022-09-09T10:05:25;21.73;;;10.25;;
24030;SDS011;12240;51.142;22.486;2022-09-09T10:10:39;24.77;;;11.20;;
24030;SDS011;12240;51.142;22.486;2022-09-09T10:17:20;25.77;;;11.77;;
24030;SDS011;12240;51.142;22.486;2022-09-09T10:20:29;21.77;;;11.13;;
24030;SDS011;12240;51.142;22.486;2022-09-09T10:32:46;29.40;;;11.10;;
24030;SDS011;12240;51.142;22.486;2022-09-09T10:38:23;22.83;;;10.75;;
24030;SDS011;12240;51.142;22.486;2022-09-09T10:41:22;31.38;;;12.50;;
24030;SDS011;12240;51.142;22.486;2022-09-09T10:46:44;25.38;;;12.55;;
24030;SDS011;12240;51.142;22.486;2022-09-09T10:49:58;32.78;;;12.45;;
24030;SDS011;12240;51.142;22.486;2022-09-09T10:55:53;28.80;;;12.27;;
24030;SDS011;12240;51.142;22.486;2022-09-09T10:58:44;27.67;;;11.85;;
24030;SDS011;12240;51.142;22.486;2022-09-09T11:01:48;25.13;;;11.75;;
24030;SDS011;12240;51.142;22.486;2022-09-09T11:04:48;28.42;;;12.35;;
24030;SDS011;12240;51.142;22.486;2022-09-09T11:13:21;29.50;;;12.40;;
24030;SDS011;12240;51.142;22.486;2022-09-09T11:19:03;27.75;;;12.20;;
24030;SDS011;12240;51.142;22.486;2022-09-09T11:21:40;28.67;;;12.43;;
24030;SDS011;12240;51.142;22.486;2022-09-09T11:24:16;27.60;;;12.07;;
24030;SDS011;12240;51.142;22.486;2022-09-09T11:27:32;27.85;;;12.30;;
24030;SDS011;12240;51.142;22.486;2022-09-09T11:33:17;27.60;;;11.98;;
24030;SDS011;12240;51.142;22.486;2022-09-09T11:38:45;25.40;;;12.50;;
24030;SDS011;12240;51.142;22.486;2022-09-09T11:41:15;26.80;;;12.18;;
24030;SDS011;12240;51.142;22.486;2022-09-09T11:43:51;30.73;;;13.13;;
24030;SDS011;12240;51.142;22.486;2022-09-09T11:46:20;28.15;;;13.23;;
24030;SDS011;12240;51.142;22.486;2022-09-09T11:49:02;27.57;;;12.90;;
24030;SDS011;12240;51.142;22.486;2022-09-09T11:51:33;28.67;;;12.55;;
24030;SDS011;12240;51.142;22.486;2022-09-09T11:54:04;32.47;;;13.05;;
24030;SDS011;12240;51.142;22.486;2022-09-09T12:00:02;32.72;;;13.60;;
24030;SDS011;12240;51.142;22.486;2022-09-09T12:02:47;27.15;;;13.05;;
24030;SDS011;12240;51.142;22.486;2022-09-09T12:05:19;23.45;;;12.68;;
24030;SDS011;12240;51.142;22.486;2022-09-09T12:07:50;28.35;;;12.32;;
24030;SDS011;12240;51.142;22.486;2022-09-09T12:10:35;27.00;;;13.00;;
24030;SDS011;12240;51.142;22.486;2022-09-09T12:13:17;23.25;;;11.18;;
24030;SDS011;12240;51.142;22.486;2022-09-09T12:15:47;27.63;;;12.55;;
24030;SDS011;12240;51.142;22.486;2022-09-09T12:37:47;34.28;;;13.68;;
24030;SDS011;12240;51.142;22.486;2022-09-09T12:40:21;37.45;;;14.23;;
24030;SDS011;12240;51.142;22.486;2022-09-09T12:42:55;31.75;;;14.85;;
24030;SDS011;12240;51.142;22.486;2022-09-09T12:45:24;25.90;;;13.02;;
24030;SDS011;12240;51.142;22.486;2022-09-09T12:47:55;33.20;;;13.48;;
24030;SDS011;12240;51.142;22.486;2022-09-09T12:50:54;33.72;;;13.82;;
24030;SDS011;12240;51.142;22.486;2022-09-09T12:53:27;29.58;;;13.52;;
24030;SDS011;12240;51.142;22.486;2022-09-09T12:56:17;33.72;;;13.77;;
24030;SDS011;12240;51.142;22.486;2022-09-09T12:58:49;33.17;;;13.93;;
24030;SDS011;12240;51.142;22.486;2022-09-09T13:01:23;29.20;;;13.05;;
24030;SDS011;12240;51.142;22.486;2022-09-09T13:03:58;32.75;;;13.20;;
24030;SDS011;12240;51.142;22.486;2022-09-09T13:06:28;34.47;;;15.30;;
24030;SDS011;12240;51.142;22.486;2022-09-09T13:08:59;35.83;;;15.00;;
24030;SDS011;12240;51.142;22.486;2022-09-09T13:11:34;31.08;;;14.60;;
24030;SDS011;12240;51.142;22.486;2022-09-09T13:14:23;31.98;;;14.18;;
24030;SDS011;12240;51.142;22.486;2022-09-09T13:17:17;35.03;;;14.55;;
24030;SDS011;12240;51.142;22.486;2022-09-09T13:19:51;30.25;;;14.77;;
24030;SDS011;12240;51.142;22.486;2022-09-09T13:22:29;31.80;;;13.55;;
24030;SDS011;12240;51.142;22.486;2022-09-09T13:30:33;28.52;;;13.02;;
24030;SDS011;12240;51.142;22.486;2022-09-09T13:35:51;26.20;;;13.13;;
24030;SDS011;12240;51.142;22.486;2022-09-09T13:38:27;31.38;;;14.45;;
24030;SDS011;12240;51.142;22.486;2022-09-09T13:41:08;32.15;;;15.02;;
24030;SDS011;12240;51.142;22.486;2022-09-09T13:43:41;25.00;;;12.73;;
24030;SDS011;12240;51.142;22.486;2022-09-09T13:51:41;30.60;;;14.10;;
24030;SDS011;12240;51.142;22.486;2022-09-09T13:54:15;26.85;;;13.93;;
24030;SDS011;12240;51.142;22.486;2022-09-09T13:56:46;30.30;;;14.10;;
24030;SDS011;12240;51.142;22.486;2022-09-09T13:59:18;28.13;;;13.68;;
24030;SDS011;12240;51.142;22.486;2022-09-09T14:01:47;28.27;;;13.00;;
24030;SDS011;12240;51.142;22.486;2022-09-09T14:04:16;28.15;;;12.70;;
24030;SDS011;12240;51.142;22.486;2022-09-09T14:06:45;27.83;;;13.18;;
24030;SDS011;12240;51.142;22.486;2022-09-09T14:09:15;29.48;;;13.20;;
24030;SDS011;12240;51.142;22.486;2022-09-09T14:11:45;28.85;;;13.95;;
24030;SDS011;12240;51.142;22.486;2022-09-09T14:14:13;24.80;;;12.55;;
24030;SDS011;12240;51.142;22.486;2022-09-09T14:16:43;26.30;;;13.52;;
24030;SDS011;12240;51.142;22.486;2022-09-09T14:19:11;24.83;;;12.48;;
24030;SDS011;12240;51.142;22.486;2022-09-09T14:21:40;27.73;;;12.68;;
24030;SDS011;12240;51.142;22.486;2022-09-09T14:24:08;26.85;;;13.80;;
24030;SDS011;12240;51.142;22.486;2022-09-09T14:26:40;29.38;;;14.23;;
24030;SDS011;12240;51.142;22.486;2022-09-09T14:29:08;31.30;;;14.88;;
24030;SDS011;12240;51.142;22.486;2022-09-09T14:31:36;28.90;;;12.35;;
24030;SDS011;12240;51.142;22.486;2022-09-09T14:34:04;25.52;;;13.52;;
24030;SDS011;12240;51.142;22.486;2022-09-09T14:36:33;22.67;;;11.98;;
24030;SDS011;12240;51.142;22.486;2022-09-09T14:39:01;26.05;;;14.30;;
24030;SDS011;12240;51.142;22.486;2022-09-09T14:41:29;25.52;;;13.00;;
24030;SDS011;12240;51.142;22.486;2022-09-09T14:43:58;28.08;;;13.88;;
24030;SDS011;12240;51.142;22.486;2022-09-09T14:46:26;27.88;;;13.63;;
24030;SDS011;12240;51.142;22.486;2022-09-09T14:48:54;34.17;;;14.95;;
24030;SDS011;12240;51.142;22.486;2022-09-09T14:51:23;28.50;;;13.50;;
24030;SDS011;12240;51.142;22.486;2022-09-09T14:53:56;27.55;;;13.88;;
24030;SDS011;12240;51.142;22.486;2022-09-09T14:56:27;25.10;;;12.38;;
24030;SDS011;12240;51.142;22.486;2022-09-09T14:58:58;29.67;;;14.38;;
24030;SDS011;12240;51.142;22.486;2022-09-09T15:01:30;30.75;;;14.18;;
24030;SDS011;12240;51.142;22.486;2022-09-09T15:04:00;25.70;;;14.43;;
24030;SDS011;12240;51.142;22.486;2022-09-09T15:06:32;29.80;;;14.30;;
24030;SDS011;12240;51.142;22.486;2022-09-09T15:09:03;28.02;;;14.73;;
24030;SDS011;12240;51.142;22.486;2022-09-09T15:11:36;23.77;;;13.45;;
24030;SDS011;12240;51.142;22.486;2022-09-09T15:14:05;27.02;;;13.65;;
24030;SDS011;12240;51.142;22.486;2022-09-09T15:16:36;24.67;;;13.30;;
24030;SDS011;12240;51.142;22.486;2022-09-09T15:19:05;23.27;;;12.57;;
24030;SDS011;12240;51.142;22.486;2022-09-09T15:21:34;24.90;;;12.90;;
24030;SDS011;12240;51.142;22.486;2022-09-09T15:24:04;25.83;;;12.93;;
24030;SDS011;12240;51.142;22.486;2022-09-09T15:26:35;23.33;;;11.93;;
24030;SDS011;12240;51.142;22.486;2022-09-09T15:29:05;20.65;;;12.02;;
24030;SDS011;12240;51.142;22.486;2022-09-09T15:31:35;22.75;;;12.55;;
24030;SDS011;12240;51.142;22.486;2022-09-09T15:34:04;21.88;;;12.55;;
24030;SDS011;12240;51.142;22.486;2022-09-09T15:36:35;21.13;;;11.80;;
24030;SDS011;12240;51.142;22.486;2022-09-09T15:39:07;24.33;;;13.10;;
24030;SDS011;12240;51.142;22.486;2022-09-09T15:41:43;27.88;;;12.90;;
24030;SDS011;12240;51.142;22.486;2022-09-09T15:44:15;24.92;;;12.18;;
24030;SDS011;12240;51.142;22.486;2022-09-09T15:46:46;27.23;;;13.55;;
24030;SDS011;12240;51.142;22.486;2022-09-09T15:49:18;23.52;;;12.43;;
24030;SDS011;12240;51.142;22.486;2022-09-09T15:51:53;20.73;;;12.27;;
24030;SDS011;12240;51.142;22.486;2022-09-09T15:54:25;22.50;;;13.15;;
24030;SDS011;12240;51.142;22.486;2022-09-09T15:56:54;26.85;;;13.43;;
24030;SDS011;12240;51.142;22.486;2022-09-09T15:59:26;21.42;;;12.07;;
24030;SDS011;12240;51.142;22.486;2022-09-09T16:01:56;26.00;;;12.95;;
24030;SDS011;12240;51.142;22.486;2022-09-09T16:04:27;21.55;;;12.35;;
24030;SDS011;12240;51.142;22.486;2022-09-09T16:06:58;23.77;;;13.05;;
24030;SDS011;12240;51.142;22.486;2022-09-09T16:09:32;22.70;;;12.60;;
24030;SDS011;12240;51.142;22.486;2022-09-09T16:12:02;20.00;;;11.75;;
24030;SDS011;12240;51.142;22.486;2022-09-09T16:14:37;22.88;;;11.75;;
24030;SDS011;12240;51.142;22.486;2022-09-09T16:17:06;18.23;;;10.60;;
24030;SDS011;12240;51.142;22.486;2022-09-09T16:19:35;21.45;;;12.07;;
24030;SDS011;12240;51.142;22.486;2022-09-09T16:22:03;20.35;;;10.98;;
24030;SDS011;12240;51.142;22.486;2022-09-09T16:24:36;22.63;;;11.88;;
24030;SDS011;12240;51.142;22.486;2022-09-09T16:27:04;24.35;;;11.70;;
24030;SDS011;12240;51.142;22.486;2022-09-09T16:29:34;26.10;;;12.57;;
24030;SDS011;12240;51.142;22.486;2022-09-09T16:32:02;23.88;;;12.07;;
24030;SDS011;12240;51.142;22.486;2022-09-09T16:34:30;19.98;;;11.32;;
24030;SDS011;12240;51.142;22.486;2022-09-09T16:37:00;24.25;;;12.48;;
24030;SDS011;12240;51.142;22.486;2022-09-09T16:39:29;21.08;;;12.50;;
24030;SDS011;12240;51.142;22.486;2022-09-09T16:41:57;26.73;;;14.10;;
24030;SDS011;12240;51.142;22.486;2022-09-09T16:44:26;30.02;;;14.73;;
24030;SDS011;12240;51.142;22.486;2022-09-09T16:46:55;23.48;;;13.60;;
24030;SDS011;12240;51.142;22.486;2022-09-09T16:49:27;29.10;;;14.15;;
24030;SDS011;12240;51.142;22.486;2022-09-09T16:51:58;28.67;;;14.15;;
24030;SDS011;12240;51.142;22.486;2022-09-09T16:54:27;25.05;;;13.88;;
24030;SDS011;12240;51.142;22.486;2022-09-09T16:56:56;27.30;;;14.90;;
24030;SDS011;12240;51.142;22.486;2022-09-09T16:59:25;29.83;;;14.98;;
24030;SDS011;12240;51.142;22.486;2022-09-09T17:01:54;31.80;;;14.75;;
24030;SDS011;12240;51.142;22.486;2022-09-09T17:04:25;22.15;;;11.63;;
24030;SDS011;12240;51.142;22.486;2022-09-09T17:06:55;31.80;;;15.73;;
24030;SDS011;12240;51.142;22.486;2022-09-09T17:09:24;28.90;;;13.77;;
24030;SDS011;12240;51.142;22.486;2022-09-09T17:11:56;30.45;;;14.20;;
24030;SDS011;12240;51.142;22.486;2022-09-09T17:14:25;29.05;;;13.95;;
24030;SDS011;12240;51.142;22.486;2022-09-09T17:16:53;27.65;;;14.55;;
24030;SDS011;12240;51.142;22.486;2022-09-09T17:19:22;27.80;;;14.82;;
24030;SDS011;12240;51.142;22.486;2022-09-09T17:21:50;29.75;;;14.85;;
24030;SDS011;12240;51.142;22.486;2022-09-09T17:24:38;27.08;;;15.15;;